Time;durP1;ratioP1;P1;durP2;ratioP2;P2;SDS_P1;SDS_P2;PMS_P1;PMS_P2;Temp;Humidity;BMP_temperature;BMP_pressure;BME280_temperature;BME280_humidity;BME280_pressure;Samples;Min_cycle;Max_cycle;Signal;HPM_P1;HPM_P2
2024/01/11 00:00:37;;;;;;;45.97;24.02;;;;;;;;;;4969979;28;20046;-65
2024/01/11 00:03:04;;;;;;;45.88;24.98;;;;;;;;;;4970273;28;20094;-65
2024/01/11 00:05:30;;;;;;;45.47;24.90;;;;;;;;;;4970458;28;20055;-65
2024/01/11 00:07:56;;;;;;;44.78;23.48;;;;;;;;;;4970125;28;20043;-66
2024/01/11 00:10:23;;;;;;;44.95;24.25;;;;;;;;;;4969995;28;20047;-65
2024/01/11 00:12:49;;;;;;;43.53;23.85;;;;;;;;;;4979510;28;20034;-65
2024/01/11 00:15:15;;;;;;;47.42;24.63;;;;;;;;;;4972283;28;20038;-65
2024/01/11 00:17:41;;;;;;;46.78;25.55;;;;;;;;;;4973254;28;20409;-65
2024/01/11 00:20:07;;;;;;;46.92;24.30;;;;;;;;;;4969675;28;20049;-65
2024/01/11 00:22:33;;;;;;;47.65;24.75;;;;;;;;;;4970531;28;20042;-65
2024/01/11 00:24:59;;;;;;;45.00;23.42;;;;;;;;;;4970378;28;20404;-65
2024/01/11 00:27:25;;;;;;;46.17;24.10;;;;;;;;;;4987605;28;20042;-65
2024/01/11 00:29:51;;;;;;;48.40;25.55;;;;;;;;;;4972007;28;20081;-65
2024/01/11 00:32:17;;;;;;;48.40;25.10;;;;;;;;;;4969946;28;20721;-65
2024/01/11 00:34:43;;;;;;;49.08;24.25;;;;;;;;;;4970442;28;20039;-66
2024/01/11 00:37:09;;;;;;;48.25;26.25;;;;;;;;;;4980724;28;20125;-65
2024/01/11 00:39:35;;;;;;;45.50;23.60;;;;;;;;;;4990100;28;20133;-65
2024/01/11 00:42:01;;;;;;;46.10;23.23;;;;;;;;;;4974804;28;20053;-65
2024/01/11 00:44:27;;;;;;;44.97;23.05;;;;;;;;;;4978985;28;20042;-65
2024/01/11 00:46:54;;;;;;;46.92;23.50;;;;;;;;;;4992748;28;20597;-65
2024/01/11 00:49:21;;;;;;;47.67;23.52;;;;;;;;;;4976517;28;20043;-65
2024/01/11 00:51:46;;;;;;;45.65;24.90;;;;;;;;;;4973478;28;20043;-65
2024/01/11 00:54:12;;;;;;;42.58;23.05;;;;;;;;;;4973515;28;20527;-65
2024/01/11 00:56:38;;;;;;;48.85;24.23;;;;;;;;;;4973196;28;20031;-65
2024/01/11 00:59:04;;;;;;;49.40;24.88;;;;;;;;;;4973128;28;20042;-65
2024/01/11 01:01:30;;;;;;;48.50;25.30;;;;;;;;;;4987043;28;20541;-65
2024/01/11 01:03:56;;;;;;;51.97;24.48;;;;;;;;;;4992203;28;20042;-65
2024/01/11 01:06:22;;;;;;;48.55;24.02;;;;;;;;;;4973284;28;20038;-65
2024/01/11 01:08:48;;;;;;;51.75;26.38;;;;;;;;;;4973391;28;20038;-65
2024/01/11 01:11:14;;;;;;;48.70;23.58;;;;;;;;;;4976144;28;20042;-65
2024/01/11 01:13:40;;;;;;;47.15;24.63;;;;;;;;;;4960715;28;20378;-65
2024/01/11 01:16:06;;;;;;;52.10;24.80;;;;;;;;;;4973442;28;20039;-65
2024/01/11 01:18:32;;;;;;;51.83;24.80;;;;;;;;;;4973261;28;20061;-65
2024/01/11 01:20:58;;;;;;;52.67;25.13;;;;;;;;;;4981094;28;20038;-65
2024/01/11 01:23:24;;;;;;;54.42;24.75;;;;;;;;;;4973095;28;20046;-65
2024/01/11 01:25:50;;;;;;;52.10;25.10;;;;;;;;;;4978152;28;20034;-65
2024/01/11 01:28:16;;;;;;;50.58;24.50;;;;;;;;;;4989648;28;20074;-65
2024/01/11 01:30:42;;;;;;;51.80;24.05;;;;;;;;;;4972416;28;20580;-65
2024/01/11 01:33:08;;;;;;;51.22;24.42;;;;;;;;;;4973168;28;20038;-65
2024/01/11 01:35:34;;;;;;;51.10;23.67;;;;;;;;;;4987916;28;20478;-65
2024/01/11 01:38:00;;;;;;;49.55;25.55;;;;;;;;;;4972843;28;20043;-65
2024/01/11 01:40:26;;;;;;;47.10;23.98;;;;;;;;;;4975473;28;20050;-65
2024/01/11 01:42:59;;;;;;;49.88;25.70;;;;;;;;;;4992316;28;20430;-65
2024/01/11 01:45:25;;;;;;;51.47;24.30;;;;;;;;;;4980793;28;20040;-65
2024/01/11 01:47:51;;;;;;;53.63;25.25;;;;;;;;;;4972783;28;20042;-65
2024/01/11 01:50:18;;;;;;;48.97;23.80;;;;;;;;;;4971460;28;20047;-65
2024/01/11 01:52:44;;;;;;;49.53;24.92;;;;;;;;;;4972476;28;20035;-65
2024/01/11 01:55:10;;;;;;;47.67;24.38;;;;;;;;;;4972720;28;20105;-65
2024/01/11 01:57:37;;;;;;;49.05;24.23;;;;;;;;;;4984782;28;20046;-65
2024/01/11 02:00:04;;;;;;;50.63;24.20;;;;;;;;;;4991236;28;20046;-65
2024/01/11 02:02:31;;;;;;;47.63;23.77;;;;;;;;;;4954800;28;20101;-65
2024/01/11 02:04:58;;;;;;;51.45;25.48;;;;;;;;;;4972923;28;20389;-65
2024/01/11 02:07:24;;;;;;;53.97;26.35;;;;;;;;;;4972128;28;20050;-65
2024/01/11 02:09:50;;;;;;;51.28;25.70;;;;;;;;;;4971668;28;20259;-65
2024/01/11 02:12:17;;;;;;;51.25;24.38;;;;;;;;;;4982561;28;20073;-65
2024/01/11 02:14:43;;;;;;;47.65;22.95;;;;;;;;;;4972207;28;20134;-65
2024/01/11 02:17:09;;;;;;;54.35;26.02;;;;;;;;;;4954869;28;20035;-65
2024/01/11 02:19:36;;;;;;;53.30;25.10;;;;;;;;;;4972232;28;20732;-65
2024/01/11 02:22:05;;;;;;;44.65;22.98;;;;;;;;;;4971470;28;20056;-65
2024/01/11 02:24:31;;;;;;;55.78;25.30;;;;;;;;;;4971922;28;20062;-65
2024/01/11 02:26:59;;;;;;;52.33;25.35;;;;;;;;;;4986263;28;20046;-66
2024/01/11 02:29:25;;;;;;;54.22;25.80;;;;;;;;;;4980735;28;20125;-66
2024/01/11 02:31:51;;;;;;;50.13;23.92;;;;;;;;;;4971663;28;20453;-66
2024/01/11 02:34:17;;;;;;;51.70;25.20;;;;;;;;;;4988991;28;20088;-66
2024/01/11 02:36:44;;;;;;;50.45;24.55;;;;;;;;;;4986921;28;20703;-66
2024/01/11 02:39:10;;;;;;;49.78;24.80;;;;;;;;;;4971587;28;20048;-66
2024/01/11 02:41:37;;;;;;;52.75;24.73;;;;;;;;;;4982612;28;20035;-66
2024/01/11 02:44:03;;;;;;;50.15;24.20;;;;;;;;;;4991364;28;20046;-66
2024/01/11 02:46:30;;;;;;;51.30;24.05;;;;;;;;;;4970647;28;20564;-66
2024/01/11 02:48:56;;;;;;;49.17;24.15;;;;;;;;;;4971443;28;20122;-65
2024/01/11 02:51:22;;;;;;;56.47;26.27;;;;;;;;;;4971021;28;20738;-66
2024/01/11 02:53:48;;;;;;;49.63;24.58;;;;;;;;;;4971352;28;20039;-66
2024/01/11 02:56:14;;;;;;;53.78;25.35;;;;;;;;;;4971645;28;20039;-65
2024/01/11 02:58:40;;;;;;;55.83;25.70;;;;;;;;;;4990005;28;20039;-66
2024/01/11 03:01:06;;;;;;;54.97;25.13;;;;;;;;;;4983690;28;20066;-65
2024/01/11 03:03:32;;;;;;;50.72;24.95;;;;;;;;;;4970835;28;20398;-65
2024/01/11 03:05:58;;;;;;;54.35;25.45;;;;;;;;;;4971191;28;20047;-65
2024/01/11 03:08:24;;;;;;;51.72;25.05;;;;;;;;;;4953430;28;20043;-66
2024/01/11 03:10:50;;;;;;;53.78;26.23;;;;;;;;;;4970975;28;20058;-66
2024/01/11 03:13:16;;;;;;;55.08;25.55;;;;;;;;;;4983634;28;20035;-66
2024/01/11 03:15:43;;;;;;;59.17;27.00;;;;;;;;;;4954185;28;20130;-66
2024/01/11 03:18:09;;;;;;;58.10;26.77;;;;;;;;;;4970937;28;20043;-66
2024/01/11 03:20:35;;;;;;;54.90;25.67;;;;;;;;;;4970655;28;20533;-66
2024/01/11 03:23:01;;;;;;;57.58;25.98;;;;;;;;;;4970620;28;20085;-66
2024/01/11 03:25:27;;;;;;;58.55;27.20;;;;;;;;;;4977351;28;20069;-66
2024/01/11 03:27:53;;;;;;;52.33;25.90;;;;;;;;;;4971168;28;20444;-66
2024/01/11 03:30:19;;;;;;;58.13;27.15;;;;;;;;;;4985237;28;20077;-65
2024/01/11 03:32:45;;;;;;;56.72;26.60;;;;;;;;;;4987638;28;20046;-65
2024/01/11 03:35:11;;;;;;;59.03;27.63;;;;;;;;;;4970848;28;20700;-65
2024/01/11 03:37:37;;;;;;;60.40;27.23;;;;;;;;;;4979835;28;20034;-66
2024/01/11 03:40:03;;;;;;;55.30;25.13;;;;;;;;;;4988640;28;20719;-66
2024/01/11 03:42:30;;;;;;;57.67;26.20;;;;;;;;;;4986244;28;20532;-65
2024/01/11 03:44:56;;;;;;;58.33;27.38;;;;;;;;;;4986594;28;20050;-65
2024/01/11 03:47:22;;;;;;;56.08;26.38;;;;;;;;;;4970766;28;20051;-65
2024/01/11 03:49:48;;;;;;;58.83;28.30;;;;;;;;;;4970310;28;20520;-65
2024/01/11 03:52:13;;;;;;;57.42;26.92;;;;;;;;;;4969669;28;20047;-66
2024/01/11 03:54:39;;;;;;;55.58;26.52;;;;;;;;;;4969767;28;20507;-65
2024/01/11 03:57:06;;;;;;;55.75;26.38;;;;;;;;;;4970742;28;20041;-65
2024/01/11 03:59:32;;;;;;;57.45;26.80;;;;;;;;;;4970162;28;20336;-66
2024/01/11 04:01:58;;;;;;;55.38;26.75;;;;;;;;;;4969702;28;20057;-66
2024/01/11 04:04:24;;;;;;;59.92;27.65;;;;;;;;;;4969457;28;20759;-66
2024/01/11 04:06:54;;;;;;;56.80;27.15;;;;;;;;;;4988519;28;20031;-65
2024/01/11 04:09:20;;;;;;;58.97;27.92;;;;;;;;;;4983222;28;20047;-65
2024/01/11 04:11:46;;;;;;;55.15;27.65;;;;;;;;;;4988515;28;20046;-66
2024/01/11 04:14:12;;;;;;;57.60;27.38;;;;;;;;;;4980718;28;20090;-65
2024/01/11 04:16:42;;;;;;;53.78;26.27;;;;;;;;;;4976931;28;20066;-65
2024/01/11 04:19:08;;;;;;;55.70;26.17;;;;;;;;;;4996064;28;20116;-65
2024/01/11 04:21:34;;;;;;;59.35;29.35;;;;;;;;;;4988501;28;20185;-65
2024/01/11 04:24:00;;;;;;;58.33;26.33;;;;;;;;;;4976393;28;20049;-65
2024/01/11 04:26:26;;;;;;;59.33;26.73;;;;;;;;;;4986561;28;20124;-65
2024/01/11 04:28:53;;;;;;;58.28;27.33;;;;;;;;;;4994496;28;20042;-65
2024/01/11 04:31:19;;;;;;;57.17;27.02;;;;;;;;;;4976516;28;20189;-65
2024/01/11 04:33:46;;;;;;;53.08;27.25;;;;;;;;;;4976073;28;20042;-65
2024/01/11 04:36:12;;;;;;;59.75;26.63;;;;;;;;;;4976913;28;20039;-65
2024/01/11 04:38:39;;;;;;;57.50;26.55;;;;;;;;;;4976597;28;20049;-65
2024/01/11 04:41:09;;;;;;;57.28;26.17;;;;;;;;;;4975888;28;20907;-65
2024/01/11 04:43:37;;;;;;;57.30;25.83;;;;;;;;;;4976239;28;20082;-65
2024/01/11 04:46:03;;;;;;;58.65;27.17;;;;;;;;;;4976608;28;20078;-65
2024/01/11 04:48:29;;;;;;;59.88;26.50;;;;;;;;;;4976296;28;20043;-65
2024/01/11 04:50:55;;;;;;;57.03;27.45;;;;;;;;;;4976205;28;20042;-65
2024/01/11 04:53:21;;;;;;;55.72;26.60;;;;;;;;;;4975792;28;20126;-65
2024/01/11 04:55:47;;;;;;;57.08;27.52;;;;;;;;;;4976279;28;20429;-65
2024/01/11 04:58:13;;;;;;;61.28;27.15;;;;;;;;;;4976672;28;20050;-65
2024/01/11 05:00:39;;;;;;;65.78;27.75;;;;;;;;;;4976115;28;20359;-65
2024/01/11 05:03:05;;;;;;;57.40;26.73;;;;;;;;;;4993690;28;20137;-65
2024/01/11 05:05:31;;;;;;;56.38;26.50;;;;;;;;;;4990717;28;20055;-65
2024/01/11 05:07:57;;;;;;;58.65;26.27;;;;;;;;;;4976594;28;20453;-65
2024/01/11 05:10:23;;;;;;;59.60;26.67;;;;;;;;;;4975937;28;20042;-65
2024/01/11 05:12:49;;;;;;;53.42;25.80;;;;;;;;;;4991781;28;20049;-65
2024/01/11 05:15:15;;;;;;;57.85;25.75;;;;;;;;;;4976765;28;20034;-65
2024/01/11 05:17:42;;;;;;;54.95;26.25;;;;;;;;;;4961590;28;20568;-65
2024/01/11 05:20:08;;;;;;;56.17;25.42;;;;;;;;;;4975975;28;20051;-65
2024/01/11 05:22:34;;;;;;;62.17;27.95;;;;;;;;;;4976029;28;20409;-65
2024/01/11 05:25:00;;;;;;;56.75;25.42;;;;;;;;;;4956842;28;20490;-65
2024/01/11 05:27:26;;;;;;;60.92;27.42;;;;;;;;;;4957265;28;20101;-66
2024/01/11 05:29:52;;;;;;;55.63;25.35;;;;;;;;;;4978913;28;20863;-65
2024/01/11 05:32:18;;;;;;;59.85;28.10;;;;;;;;;;4992345;28;20038;-65
2024/01/11 05:34:44;;;;;;;59.72;28.38;;;;;;;;;;4978796;28;20046;-65
2024/01/11 05:37:10;;;;;;;61.42;27.27;;;;;;;;;;4973096;28;20098;-65
2024/01/11 05:39:36;;;;;;;61.47;27.67;;;;;;;;;;4972563;28;20034;-65
2024/01/11 05:42:02;;;;;;;69.60;29.65;;;;;;;;;;4981738;28;20046;-65
2024/01/11 05:44:28;;;;;;;61.55;28.73;;;;;;;;;;4972512;28;20516;-65
2024/01/11 05:46:54;;;;;;;65.72;28.30;;;;;;;;;;4972749;28;20039;-66
2024/01/11 05:49:21;;;;;;;63.58;28.42;;;;;;;;;;4987627;28;20121;-65
2024/01/11 05:51:47;;;;;;;58.40;27.88;;;;;;;;;;4972777;28;20042;-65
2024/01/11 05:54:13;;;;;;;64.72;28.77;;;;;;;;;;4979812;28;20073;-65
2024/01/11 05:56:39;;;;;;;64.53;28.85;;;;;;;;;;4974743;28;20046;-65
2024/01/11 05:59:05;;;;;;;61.50;28.40;;;;;;;;;;4976161;28;20046;-65
2024/01/11 06:01:31;;;;;;;61.38;28.42;;;;;;;;;;4972183;28;20066;-65
2024/01/11 06:03:57;;;;;;;60.25;29.15;;;;;;;;;;4972149;28;20464;-65
2024/01/11 06:06:23;;;;;;;67.72;29.95;;;;;;;;;;4972313;28;20549;-65
2024/01/11 06:08:50;;;;;;;67.22;31.02;;;;;;;;;;4972709;28;20047;-65
2024/01/11 06:11:18;;;;;;;70.57;29.48;;;;;;;;;;4975422;28;20048;-65
2024/01/11 06:13:44;;;;;;;61.38;28.70;;;;;;;;;;4987564;28;20405;-65
2024/01/11 06:16:10;;;;;;;65.63;31.38;;;;;;;;;;4972288;28;20058;-65
2024/01/11 06:18:36;;;;;;;58.50;28.80;;;;;;;;;;4972141;28;20039;-65
2024/01/11 06:21:02;;;;;;;66.22;29.70;;;;;;;;;;4972019;28;20051;-65
2024/01/11 06:23:28;;;;;;;61.72;29.73;;;;;;;;;;4971915;28;20061;-65
2024/01/11 06:25:54;;;;;;;60.83;28.52;;;;;;;;;;4972165;28;20035;-65
2024/01/11 06:28:20;;;;;;;64.22;29.70;;;;;;;;;;4972483;28;20042;-65
2024/01/11 06:30:46;;;;;;;64.53;29.20;;;;;;;;;;4970351;28;20043;-65
2024/01/11 06:33:12;;;;;;;63.47;29.45;;;;;;;;;;4971779;28;20637;-65
2024/01/11 06:35:38;;;;;;;64.22;29.50;;;;;;;;;;4989830;28;20684;-66
2024/01/11 06:38:04;;;;;;;66.63;30.25;;;;;;;;;;4985455;28;20043;-65
2024/01/11 06:40:30;;;;;;;65.93;30.23;;;;;;;;;;4975442;28;20056;-65
2024/01/11 06:42:56;;;;;;;62.47;31.10;;;;;;;;;;4978315;28;20043;-65
2024/01/11 06:45:22;;;;;;;68.75;33.40;;;;;;;;;;4971452;28;20561;-66
2024/01/11 06:47:48;;;;;;;68.95;32.33;;;;;;;;;;4971553;28;20043;-66
2024/01/11 06:50:15;;;;;;;65.35;30.75;;;;;;;;;;4971646;28;20050;-66
2024/01/11 06:52:41;;;;;;;64.55;31.67;;;;;;;;;;4971600;28;20035;-66
2024/01/11 06:55:07;;;;;;;68.13;32.17;;;;;;;;;;4971104;28;20444;-66
2024/01/11 06:57:33;;;;;;;69.97;32.25;;;;;;;;;;4971393;28;20066;-65
2024/01/11 06:59:59;;;;;;;67.70;31.77;;;;;;;;;;4971697;28;20506;-65
2024/01/11 07:02:25;;;;;;;69.03;32.15;;;;;;;;;;4978933;28;20061;-65
2024/01/11 07:04:51;;;;;;;69.07;31.63;;;;;;;;;;4989930;28;20053;-65
2024/01/11 07:07:17;;;;;;;63.45;30.13;;;;;;;;;;4975786;28;20035;-65
2024/01/11 07:09:44;;;;;;;60.78;29.65;;;;;;;;;;4970802;28;20069;-65
2024/01/11 07:12:10;;;;;;;64.75;30.23;;;;;;;;;;4981803;28;20657;-66
2024/01/11 07:14:36;;;;;;;66.07;31.85;;;;;;;;;;4981135;28;20038;-66
2024/01/11 07:17:03;;;;;;;64.60;31.08;;;;;;;;;;4981630;28;20409;-64
2024/01/11 07:19:29;;;;;;;64.22;29.67;;;;;;;;;;4971158;28;20066;-64
2024/01/11 07:21:55;;;;;;;61.50;30.95;;;;;;;;;;4973657;28;20072;-64
2024/01/11 07:24:21;;;;;;;64.55;31.30;;;;;;;;;;4971099;28;20673;-64
2024/01/11 07:26:47;;;;;;;62.47;29.27;;;;;;;;;;4972584;28;20113;-64
2024/01/11 07:29:13;;;;;;;59.08;30.30;;;;;;;;;;4970902;28;20586;-66
2024/01/11 07:31:39;;;;;;;60.95;30.00;;;;;;;;;;4970629;28;20039;-66
2024/01/11 07:34:05;;;;;;;61.60;29.17;;;;;;;;;;4970925;28;20039;-66
2024/01/11 07:36:31;;;;;;;59.83;28.75;;;;;;;;;;4970224;28;20065;-66
2024/01/11 07:38:57;;;;;;;58.72;28.58;;;;;;;;;;4956734;28;20043;-65
2024/01/11 07:41:23;;;;;;;62.95;30.48;;;;;;;;;;4972179;28;20043;-66
2024/01/11 07:43:49;;;;;;;59.47;28.30;;;;;;;;;;4968867;28;20066;-66
2024/01/11 07:46:16;;;;;;;61.08;29.80;;;;;;;;;;4967735;28;20045;-66
2024/01/11 07:48:42;;;;;;;64.00;29.17;;;;;;;;;;4968624;28;20051;-67
2024/01/11 07:51:08;;;;;;;63.90;28.48;;;;;;;;;;4968742;28;20076;-67
2024/01/11 07:53:34;;;;;;;59.85;28.70;;;;;;;;;;4968926;28;20035;-66
2024/01/11 07:56:01;;;;;;;60.90;30.80;;;;;;;;;;4968818;28;20529;-66
2024/01/11 07:58:26;;;;;;;59.30;30.58;;;;;;;;;;4969514;28;20513;-66
2024/01/11 08:00:54;;;;;;;61.17;29.33;;;;;;;;;;4968282;28;20047;-66
2024/01/11 08:03:20;;;;;;;63.15;28.73;;;;;;;;;;4969689;28;20047;-66
2024/01/11 08:05:46;;;;;;;61.30;29.02;;;;;;;;;;4969663;28;20548;-66
2024/01/11 08:08:12;;;;;;;64.18;30.45;;;;;;;;;;4971590;28;20076;-66
2024/01/11 08:10:38;;;;;;;63.30;29.50;;;;;;;;;;4969531;28;20117;-66
2024/01/11 08:13:04;;;;;;;58.65;29.05;;;;;;;;;;4971447;28;20134;-66
2024/01/11 08:15:30;;;;;;;60.10;29.30;;;;;;;;;;4975487;28;20047;-66
2024/01/11 08:17:56;;;;;;;59.22;28.00;;;;;;;;;;4969819;28;20043;-66
2024/01/11 08:20:22;;;;;;;62.63;29.38;;;;;;;;;;4970015;28;20133;-66
2024/01/11 08:22:48;;;;;;;61.38;27.92;;;;;;;;;;4969975;28;20046;-66
2024/01/11 08:25:14;;;;;;;58.97;30.33;;;;;;;;;;4969647;28;20043;-67
2024/01/11 08:27:40;;;;;;;60.72;29.00;;;;;;;;;;4973707;28;20102;-66
2024/01/11 08:30:08;;;;;;;64.80;31.17;;;;;;;;;;4969533;28;20039;-66
2024/01/11 08:32:38;;;;;;;59.28;29.63;;;;;;;;;;4969821;28;20042;-66
2024/01/11 08:35:06;;;;;;;61.03;28.65;;;;;;;;;;4969771;28;20473;-67
2024/01/11 08:37:32;;;;;;;65.43;30.20;;;;;;;;;;4957535;28;20437;-67
2024/01/11 08:39:58;;;;;;;65.10;31.83;;;;;;;;;;4969617;28;20061;-67
2024/01/11 08:42:24;;;;;;;65.63;31.83;;;;;;;;;;4974370;28;20051;-66
2024/01/11 08:44:50;;;;;;;58.72;29.38;;;;;;;;;;4967224;28;20981;-66
2024/01/11 08:47:16;;;;;;;60.08;30.27;;;;;;;;;;4965234;28;20046;-66
2024/01/11 08:49:42;;;;;;;69.72;33.15;;;;;;;;;;4968988;28;20042;-67
2024/01/11 08:52:08;;;;;;;64.80;33.00;;;;;;;;;;4968276;28;20540;-67
2024/01/11 08:54:34;;;;;;;62.92;32.13;;;;;;;;;;4968670;28;20496;-67
2024/01/11 08:57:01;;;;;;;60.95;32.25;;;;;;;;;;4969107;28;20084;-67
2024/01/11 08:59:27;;;;;;;67.40;32.42;;;;;;;;;;4969790;28;20493;-67
2024/01/11 09:01:53;;;;;;;68.55;32.08;;;;;;;;;;4971792;28;20055;-67
2024/01/11 09:04:19;;;;;;;66.97;34.03;;;;;;;;;;4960436;28;20043;-67
2024/01/11 09:06:45;;;;;;;71.43;34.25;;;;;;;;;;4971097;28;20606;-67
2024/01/11 09:09:13;;;;;;;65.32;33.15;;;;;;;;;;4971720;28;20046;-67
2024/01/11 09:11:39;;;;;;;63.65;32.30;;;;;;;;;;4972041;28;20053;-67
2024/01/11 09:14:07;;;;;;;67.78;33.70;;;;;;;;;;4971570;28;20053;-67
2024/01/11 09:16:33;;;;;;;65.88;31.77;;;;;;;;;;4966368;28;20097;-67
2024/01/11 09:19:02;;;;;;;71.60;32.58;;;;;;;;;;4977210;28;20053;-67
2024/01/11 09:21:28;;;;;;;64.15;32.92;;;;;;;;;;4971835;28;20397;-67
2024/01/11 09:23:55;;;;;;;67.90;33.03;;;;;;;;;;4971136;28;20108;-67
2024/01/11 09:26:22;;;;;;;63.35;31.63;;;;;;;;;;4977609;28;20049;-68
2024/01/11 09:28:48;;;;;;;65.65;31.58;;;;;;;;;;4971033;28;20043;-67
2024/01/11 09:31:14;;;;;;;63.72;31.17;;;;;;;;;;4970808;28;20558;-67
2024/01/11 09:33:42;;;;;;;63.30;31.45;;;;;;;;;;4971516;28;20393;-68
2024/01/11 09:36:08;;;;;;;64.03;31.08;;;;;;;;;;4970240;28;20043;-68
2024/01/11 09:38:34;;;;;;;65.50;31.20;;;;;;;;;;4969906;28;20054;-68
2024/01/11 09:41:07;;;;;;;63.10;30.75;;;;;;;;;;4979105;28;20031;-68
2024/01/11 09:43:34;;;;;;;65.32;31.05;;;;;;;;;;4970470;28;20110;-68
2024/01/11 09:46:01;;;;;;;63.70;31.42;;;;;;;;;;4970130;28;20050;-68
2024/01/11 09:48:27;;;;;;;62.65;31.27;;;;;;;;;;4956633;28;20131;-68
2024/01/11 09:50:54;;;;;;;58.33;31.08;;;;;;;;;;4970307;28;20066;-68
2024/01/11 09:53:22;;;;;;;61.78;31.33;;;;;;;;;;4970843;28;20668;-68
2024/01/11 09:55:49;;;;;;;66.15;30.83;;;;;;;;;;4980057;28;20043;-68
2024/01/11 09:58:15;;;;;;;59.38;28.67;;;;;;;;;;4970333;28;20047;-68
2024/01/11 10:00:41;;;;;;;59.15;29.35;;;;;;;;;;4973445;28;20130;-67
2024/01/11 10:03:07;;;;;;;55.42;28.00;;;;;;;;;;4970858;28;20070;-68
2024/01/11 10:05:35;;;;;;;57.85;28.33;;;;;;;;;;4970945;28;20078;-68
2024/01/11 10:08:01;;;;;;;53.05;27.75;;;;;;;;;;4969828;28;20629;-67
2024/01/11 10:10:27;;;;;;;55.72;28.67;;;;;;;;;;4970342;28;20051;-67
2024/01/11 10:12:53;;;;;;;59.15;28.73;;;;;;;;;;4970420;28;20178;-67
2024/01/11 10:15:19;;;;;;;52.65;27.48;;;;;;;;;;4970261;28;20133;-67
2024/01/11 10:17:45;;;;;;;56.10;27.58;;;;;;;;;;4970557;28;20632;-67
2024/01/11 10:20:15;;;;;;;54.20;27.58;;;;;;;;;;4970510;28;20568;-67
2024/01/11 10:22:41;;;;;;;53.05;26.52;;;;;;;;;;4970086;28;20039;-67
2024/01/11 10:25:15;;;;;;;55.75;27.27;;;;;;;;;;4970176;28;20062;-67
2024/01/11 10:27:45;;;;;;;54.60;28.17;;;;;;;;;;4969374;28;20089;-67
2024/01/11 10:30:19;;;;;;;56.33;27.08;;;;;;;;;;4970098;28;20448;-67
2024/01/11 10:32:46;;;;;;;51.60;27.02;;;;;;;;;;4970848;28;20047;-67
2024/01/11 10:35:12;;;;;;;51.58;26.25;;;;;;;;;;4970624;28;20543;-67
2024/01/11 10:37:41;;;;;;;50.65;24.92;;;;;;;;;;4964319;28;20046;-68
2024/01/11 10:40:15;;;;;;;50.30;24.95;;;;;;;;;;4970126;28;20050;-68
2024/01/11 10:42:45;;;;;;;51.50;25.65;;;;;;;;;;4979512;28;20591;-68
2024/01/11 10:45:18;;;;;;;48.83;24.77;;;;;;;;;;4970079;28;20054;-68
2024/01/11 10:47:47;;;;;;;52.58;25.67;;;;;;;;;;4968344;28;20177;-68
2024/01/11 10:50:14;;;;;;;47.45;25.42;;;;;;;;;;4969864;28;20078;-67
2024/01/11 10:52:44;;;;;;;49.75;25.52;;;;;;;;;;4974249;28;20093;-68
2024/01/11 10:55:10;;;;;;;55.55;25.75;;;;;;;;;;4969436;28;20042;-67
2024/01/11 10:57:36;;;;;;;50.28;25.88;;;;;;;;;;4970840;28;20134;-67
2024/01/11 11:00:03;;;;;;;50.53;24.77;;;;;;;;;;4969506;28;20397;-67
2024/01/11 11:02:30;;;;;;;50.05;25.08;;;;;;;;;;4969653;28;20082;-67
2024/01/11 11:04:56;;;;;;;53.40;24.48;;;;;;;;;;4970052;28;20134;-67
2024/01/11 11:07:22;;;;;;;49.05;24.55;;;;;;;;;;4970113;28;20050;-67
2024/01/11 11:09:50;;;;;;;44.15;23.25;;;;;;;;;;4970549;28;20480;-68
2024/01/11 11:12:17;;;;;;;46.80;23.33;;;;;;;;;;4971918;28;20069;-67
2024/01/11 11:14:44;;;;;;;50.47;24.13;;;;;;;;;;4970522;28;20039;-67
2024/01/11 11:17:10;;;;;;;50.03;24.25;;;;;;;;;;4966968;28;20035;-67
2024/01/11 11:19:36;;;;;;;46.08;23.58;;;;;;;;;;4969361;28;20031;-68
2024/01/11 11:22:04;;;;;;;46.63;23.02;;;;;;;;;;4980737;28;20051;-69
2024/01/11 11:24:30;;;;;;;41.80;22.60;;;;;;;;;;4969954;28;20042;-68
2024/01/11 11:26:57;;;;;;;49.45;23.75;;;;;;;;;;4976746;28;20039;-68
2024/01/11 11:29:23;;;;;;;49.20;24.92;;;;;;;;;;4969843;28;20066;-68
2024/01/11 11:31:53;;;;;;;47.80;22.65;;;;;;;;;;4969678;28;20085;-68
2024/01/11 11:34:20;;;;;;;48.00;23.40;;;;;;;;;;4969191;28;20078;-68
2024/01/11 11:36:54;;;;;;;45.47;23.17;;;;;;;;;;4951538;28;20038;-68
2024/01/11 11:39:21;;;;;;;50.58;23.88;;;;;;;;;;4969043;28;20070;-67
2024/01/11 11:41:49;;;;;;;49.80;24.05;;;;;;;;;;4969880;28;20125;-67
2024/01/11 11:44:16;;;;;;;42.47;23.08;;;;;;;;;;4984016;28;20046;-66
2024/01/11 11:46:43;;;;;;;49.05;24.00;;;;;;;;;;4979197;28;20059;-68
2024/01/11 11:49:10;;;;;;;47.15;23.13;;;;;;;;;;4967557;28;20078;-66
2024/01/11 11:51:40;;;;;;;46.88;22.65;;;;;;;;;;4983180;28;20739;-66
2024/01/11 11:54:09;;;;;;;43.95;23.15;;;;;;;;;;4984802;28;20042;-67
2024/01/11 11:56:36;;;;;;;47.55;23.50;;;;;;;;;;4968767;28;20047;-66
2024/01/11 11:59:03;;;;;;;43.03;23.15;;;;;;;;;;4968592;28;20434;-66
2024/01/11 12:01:29;;;;;;;46.92;23.83;;;;;;;;;;4970042;28;20101;-67
2024/01/11 12:03:55;;;;;;;44.63;23.23;;;;;;;;;;4981165;28;20050;-66
2024/01/11 12:06:27;;;;;;;41.30;21.20;;;;;;;;;;4984030;28;20058;-66
2024/01/11 12:08:54;;;;;;;41.90;21.10;;;;;;;;;;4952776;28;20509;-66
2024/01/11 12:11:21;;;;;;;44.45;22.52;;;;;;;;;;4972797;28;20046;-66
2024/01/11 12:13:48;;;;;;;43.75;22.85;;;;;;;;;;4989428;28;20043;-65
2024/01/11 12:16:14;;;;;;;44.95;23.88;;;;;;;;;;4970883;28;20047;-67
2024/01/11 12:18:41;;;;;;;44.47;24.00;;;;;;;;;;4969734;28;20113;-65
2024/01/11 12:21:07;;;;;;;43.38;22.95;;;;;;;;;;4969790;28;20433;-65
2024/01/11 12:23:34;;;;;;;41.15;21.48;;;;;;;;;;4970084;28;20082;-65
2024/01/11 12:26:05;;;;;;;47.13;22.50;;;;;;;;;;4953316;28;20074;-65
2024/01/11 12:28:32;;;;;;;41.55;22.52;;;;;;;;;;4969740;28;20134;-65
2024/01/11 12:30:58;;;;;;;41.42;22.70;;;;;;;;;;4972720;28;20085;-66
2024/01/11 12:33:25;;;;;;;45.97;23.58;;;;;;;;;;4989940;28;20038;-65
2024/01/11 12:35:51;;;;;;;44.28;23.63;;;;;;;;;;4976355;28;20039;-65
2024/01/11 12:38:17;;;;;;;44.95;23.20;;;;;;;;;;4974373;28;20035;-65
2024/01/11 12:40:43;;;;;;;43.53;22.30;;;;;;;;;;4982141;28;20038;-65
2024/01/11 12:43:11;;;;;;;56.42;30.70;;;;;;;;;;4982943;28;20054;-66
2024/01/11 12:45:38;;;;;;;58.33;30.02;;;;;;;;;;4974200;28;20042;-66
2024/01/11 12:48:07;;;;;;;57.92;27.40;;;;;;;;;;4973763;28;20123;-66
2024/01/11 12:50:33;;;;;;;43.58;22.90;;;;;;;;;;4972885;28;20058;-65
2024/01/11 12:53:07;;;;;;;40.78;23.40;;;;;;;;;;4974299;28;20066;-65
2024/01/11 12:55:34;;;;;;;40.67;21.80;;;;;;;;;;4981038;28;20048;-65
2024/01/11 12:58:09;;;;;;;43.67;22.15;;;;;;;;;;4992443;28;20046;-65
2024/01/11 13:00:36;;;;;;;42.08;22.77;;;;;;;;;;4973354;28;20047;-65
2024/01/11 13:03:03;;;;;;;44.42;22.83;;;;;;;;;;4973546;28;20708;-65
2024/01/11 13:05:34;;;;;;;48.92;23.77;;;;;;;;;;4974204;28;20043;-65
2024/01/11 13:08:01;;;;;;;43.55;24.15;;;;;;;;;;4983982;28;20593;-65
2024/01/11 13:10:27;;;;;;;49.00;23.48;;;;;;;;;;4988023;28;20050;-65
2024/01/11 13:12:54;;;;;;;46.03;24.40;;;;;;;;;;4990484;28;20127;-65
2024/01/11 13:15:20;;;;;;;49.83;25.33;;;;;;;;;;4982000;28;20043;-65
2024/01/11 13:17:46;;;;;;;47.85;23.83;;;;;;;;;;4973516;28;20883;-65
2024/01/11 13:20:13;;;;;;;53.88;25.58;;;;;;;;;;4972825;28;20047;-65
2024/01/11 13:22:39;;;;;;;49.97;25.38;;;;;;;;;;4973003;28;20053;-65
2024/01/11 13:25:05;;;;;;;53.05;26.10;;;;;;;;;;4991774;28;20042;-65
2024/01/11 13:27:31;;;;;;;54.80;28.45;;;;;;;;;;4979907;28;20046;-65
2024/01/11 13:29:58;;;;;;;58.92;29.80;;;;;;;;;;4992143;28;20617;-65
2024/01/11 13:32:24;;;;;;;63.78;28.02;;;;;;;;;;4973233;28;20042;-65
2024/01/11 13:34:52;;;;;;;61.22;28.30;;;;;;;;;;4972753;28;20130;-64
2024/01/11 13:37:19;;;;;;;62.65;30.08;;;;;;;;;;4992170;28;20038;-64
2024/01/11 13:39:45;;;;;;;64.78;31.90;;;;;;;;;;4974995;28;20047;-64
2024/01/11 13:42:11;;;;;;;63.72;30.88;;;;;;;;;;4961126;28;20054;-64
2024/01/11 13:44:37;;;;;;;66.05;30.90;;;;;;;;;;4973002;28;20494;-64
2024/01/11 13:47:03;;;;;;;65.30;31.58;;;;;;;;;;4962787;28;20045;-64
2024/01/11 13:49:29;;;;;;;63.13;30.92;;;;;;;;;;4974536;28;20046;-65
2024/01/11 13:51:55;;;;;;;69.88;32.05;;;;;;;;;;4976860;28;20043;-65
2024/01/11 13:54:24;;;;;;;71.82;32.45;;;;;;;;;;4971598;28;20203;-65
2024/01/11 13:56:54;;;;;;;69.57;31.80;;;;;;;;;;4971185;28;20039;-64
2024/01/11 13:59:20;;;;;;;77.60;32.78;;;;;;;;;;4971851;28;20039;-64
2024/01/11 14:01:45;;;;;;;71.13;33.67;;;;;;;;;;4971313;28;20513;-65
2024/01/11 14:04:11;;;;;;;70.22;31.88;;;;;;;;;;4971858;28;20055;-65
2024/01/11 14:06:39;;;;;;;69.40;30.55;;;;;;;;;;4972009;28;20042;-65
2024/01/11 14:09:09;;;;;;;67.85;32.42;;;;;;;;;;4972810;28;20054;-65
2024/01/11 14:11:35;;;;;;;67.78;31.63;;;;;;;;;;4972972;28;20080;-65